Terminal Aerodrome Forecast
Issued by NWS Jackson, MS

Home | Current Version | Previous Version | Text Only | Print | Product List | Glossary On
Versions: 1 2 3 4 5 6 7 8 9 10 11 12 13 14 15 16 17 18 19 20 21
000
FTUS44 KMEG 270532
TAFTUP
TAF
KTUP 270532Z 2706/2806 04012KT P6SM OVC250
     FM271400 05012G18KT P6SM BKN120 OVC250
     FM280000 03009KT P6SM SCT050 OVC100=

USA.gov is the U.S. government's official web portal to all federal, state and local government web resources and services.